createdAt,value
2019-02-17T00:00:29.637Z,5.16
2019-02-17T00:01:02.832Z,5.15
2019-02-17T00:01:35.998Z,5.16
2019-02-17T00:02:07.879Z,5.15
2019-02-17T00:02:39.340Z,5.17
2019-02-17T00:03:10.724Z,5.17
2019-02-17T00:03:43.161Z,5.17
2019-02-17T00:04:14.510Z,5.17
2019-02-17T00:04:45.940Z,5.09
2019-02-17T00:05:17.441Z,5.08
2019-02-17T00:05:48.892Z,5.08
2019-02-17T00:06:20.215Z,5.06
2019-02-17T00:06:51.603Z,5.19
2019-02-17T00:07:22.993Z,5.19
2019-02-17T00:07:54.275Z,5.19
2019-02-17T00:08:25.626Z,5.09
2019-02-17T00:08:56.844Z,5.11
2019-02-17T00:09:28.175Z,5.18
2019-02-17T00:09:59.494Z,5.18
2019-02-17T00:10:30.798Z,5.17
2019-02-17T00:11:02.132Z,5.16
2019-02-17T00:11:33.369Z,5.17
2019-02-17T00:12:04.663Z,5.18
2019-02-17T00:12:36.006Z,5.16
2019-02-17T00:13:07.388Z,5.16
2019-02-17T00:13:38.657Z,5.16
2019-02-17T00:14:10.078Z,5.16
2019-02-17T00:14:41.394Z,5.16
2019-02-17T00:15:12.945Z,5.16
2019-02-17T00:15:44.344Z,5.15
2019-02-17T00:16:15.629Z,5.15
2019-02-17T00:16:46.994Z,5.14
2019-02-17T00:17:18.341Z,5.09
2019-02-17T00:17:49.675Z,5.12
2019-02-17T00:18:23.733Z,5.12
2019-02-17T00:18:55.111Z,5.00
2019-02-17T00:19:26.449Z,5.09
2019-02-17T00:19:57.764Z,5.09
2019-02-17T00:20:29.173Z,5.09
2019-02-17T00:21:00.588Z,5.08
2019-02-17T00:21:31.944Z,5.08
2019-02-17T00:22:03.211Z,4.99
2019-02-17T00:22:34.493Z,5.06
2019-02-17T00:23:05.769Z,5.04
2019-02-17T00:23:37.079Z,5.03
2019-02-17T00:24:08.475Z,5.03
2019-02-17T00:24:39.930Z,5.03
2019-02-17T00:25:11.207Z,4.95
2019-02-17T00:25:42.555Z,5.03
2019-02-17T00:26:13.861Z,5.03
2019-02-17T00:26:45.447Z,5.03
2019-02-17T00:27:16.769Z,5.04
2019-02-17T00:27:48.159Z,5.04
2019-02-17T00:28:19.471Z,5.02
2019-02-17T00:28:59.148Z,5.01
2019-02-17T00:29:24.042Z,5.01
2019-02-17T00:29:55.474Z,4.95
2019-02-17T00:30:26.748Z,5.02
2019-02-17T00:30:58.198Z,5.01
2019-02-17T00:31:29.520Z,4.91
2019-02-17T00:32:00.776Z,4.91
2019-02-17T00:32:32.201Z,5.01
2019-02-17T00:33:03.406Z,5.00
2019-02-17T00:33:34.850Z,4.98
2019-02-17T00:34:07.255Z,5.00
2019-02-17T00:34:38.658Z,5.01
2019-02-17T00:35:09.959Z,5.01
2019-02-17T00:35:41.306Z,5.00
2019-02-17T00:36:12.600Z,4.89
2019-02-17T00:36:43.914Z,4.89
2019-02-17T00:37:15.263Z,4.89
2019-02-17T00:37:46.574Z,4.99
2019-02-17T00:38:17.955Z,4.89
2019-02-17T00:38:49.287Z,4.89
2019-02-17T00:39:20.615Z,4.90
2019-02-17T00:39:51.933Z,4.98
2019-02-17T00:40:23.232Z,4.98
2019-02-17T00:40:54.490Z,4.89
2019-02-17T00:41:25.800Z,4.97
2019-02-17T00:41:57.123Z,4.97
2019-02-17T00:42:28.417Z,4.97
2019-02-17T00:42:59.832Z,4.98
2019-02-17T00:43:31.142Z,4.98
2019-02-17T00:44:02.458Z,4.98
2019-02-17T00:44:33.785Z,5.00
2019-02-17T00:45:07.465Z,5.00
2019-02-17T00:45:38.703Z,4.92
2019-02-17T00:46:10.112Z,5.02
2019-02-17T00:46:41.341Z,5.01
2019-02-17T00:47:12.985Z,5.01
2019-02-17T00:47:44.323Z,5.03
2019-02-17T00:48:15.855Z,4.92
2019-02-17T00:48:47.273Z,4.92
2019-02-17T00:49:18.619Z,5.01
2019-02-17T00:49:50.193Z,4.98
2019-02-17T00:50:21.566Z,4.98
2019-02-17T00:50:52.955Z,4.92
2019-02-17T00:51:24.388Z,5.02
2019-02-17T00:51:55.774Z,5.00
2019-02-17T00:52:27.230Z,5.00
2019-02-17T00:52:58.626Z,4.91
2019-02-17T00:53:29.883Z,4.90
2019-02-17T00:54:01.274Z,4.98
2019-02-17T00:54:32.501Z,4.97
2019-02-17T00:55:06.788Z,4.97
2019-02-17T00:55:38.136Z,4.88
2019-02-17T00:56:09.514Z,4.96
2019-02-17T00:56:40.759Z,4.96
2019-02-17T00:57:12.378Z,4.86
2019-02-17T00:57:43.681Z,4.84
2019-02-17T00:58:15.067Z,4.85
2019-02-17T00:58:46.364Z,4.93
2019-02-17T00:59:17.782Z,4.83
2019-02-17T00:59:49.155Z,4.83
2019-02-17T01:00:20.516Z,4.91
2019-02-17T01:00:51.822Z,4.81
2019-02-17T01:01:23.130Z,4.80
2019-02-17T01:01:54.638Z,4.79
2019-02-17T01:02:25.962Z,4.89
2019-02-17T01:02:57.267Z,4.79
2019-02-17T01:03:28.580Z,4.79
2019-02-17T01:04:00.121Z,4.87
2019-02-17T01:04:31.342Z,4.91
2019-02-17T01:05:04.524Z,4.91
2019-02-17T01:05:36.012Z,4.91
2019-02-17T01:06:07.608Z,4.91
2019-02-17T01:06:38.976Z,4.81
2019-02-17T01:07:10.368Z,4.81
2019-02-17T01:07:41.632Z,4.93
2019-02-17T01:08:13.173Z,4.94
2019-02-17T01:08:44.557Z,4.97
2019-02-17T01:09:15.929Z,4.97
2019-02-17T01:09:47.176Z,4.83
2019-02-17T01:10:18.554Z,4.96
2019-02-17T01:10:49.806Z,5.01
2019-02-17T01:11:21.218Z,5.01
2019-02-17T01:11:52.473Z,4.92
2019-02-17T01:12:23.863Z,4.92
2019-02-17T01:12:55.263Z,5.04
2019-02-17T01:13:26.638Z,4.97
2019-02-17T01:13:57.866Z,5.04
2019-02-17T01:14:29.170Z,5.04
2019-02-17T01:15:00.523Z,5.06
2019-02-17T01:15:31.913Z,4.98
2019-02-17T01:16:03.151Z,4.98
2019-02-17T01:16:34.546Z,5.08
2019-02-17T01:17:05.861Z,5.08
2019-02-17T01:17:37.206Z,5.01
2019-02-17T01:18:09.591Z,4.97
2019-02-17T01:18:41.036Z,4.97
2019-02-17T01:19:12.539Z,4.95
2019-02-17T01:19:43.947Z,4.95
2019-02-17T01:20:15.387Z,4.99
2019-02-17T01:20:46.810Z,4.99
2019-02-17T01:21:18.183Z,4.99
2019-02-17T01:21:49.653Z,4.94
2019-02-17T01:22:21.004Z,4.79
2019-02-17T01:22:52.392Z,4.94
2019-02-17T01:23:23.795Z,4.92
2019-02-17T01:23:55.035Z,4.82
2019-02-17T01:24:26.343Z,4.76
2019-02-17T01:24:57.561Z,4.83
2019-02-17T01:25:28.865Z,4.83
2019-02-17T01:26:00.087Z,4.78
2019-02-17T01:26:31.393Z,4.78
2019-02-17T01:27:02.706Z,4.69
2019-02-17T01:27:34.129Z,4.68
2019-02-17T01:28:05.464Z,4.63
2019-02-17T01:28:36.855Z,4.58
2019-02-17T01:29:08.183Z,4.58
2019-02-17T01:29:39.529Z,4.56
2019-02-17T01:30:13.177Z,4.56
2019-02-17T01:30:44.552Z,4.58
2019-02-17T01:31:15.930Z,4.59
2019-02-17T01:31:47.314Z,4.59
2019-02-17T01:32:18.595Z,4.61
2019-02-17T01:32:50.059Z,4.62
2019-02-17T01:33:21.509Z,4.62
2019-02-17T01:33:52.960Z,4.52
2019-02-17T01:34:24.402Z,4.52
2019-02-17T01:34:55.763Z,4.57
2019-02-17T01:35:27.119Z,4.57
2019-02-17T01:35:58.487Z,4.54
2019-02-17T01:36:29.850Z,4.54
2019-02-17T01:37:01.182Z,4.55
2019-02-17T01:37:32.530Z,4.55
2019-02-17T01:38:03.858Z,4.50
2019-02-17T01:38:35.154Z,4.57
2019-02-17T01:39:06.604Z,4.56
2019-02-17T01:39:37.916Z,4.56
2019-02-17T01:40:09.133Z,4.53
2019-02-17T01:40:40.534Z,4.44
2019-02-17T01:41:11.848Z,4.43
2019-02-17T01:41:43.202Z,4.51
2019-02-17T01:42:14.498Z,4.51
2019-02-17T01:42:45.939Z,4.51
2019-02-17T01:43:17.203Z,4.52
2019-02-17T01:43:48.677Z,4.50
2019-02-17T01:44:20.012Z,4.49
2019-02-17T01:44:51.296Z,4.49
2019-02-17T01:45:22.645Z,4.46
2019-02-17T01:45:54.053Z,4.45
2019-02-17T01:46:25.447Z,4.34
2019-02-17T01:46:56.788Z,4.30
2019-02-17T01:47:28.075Z,4.38
2019-02-17T01:47:59.516Z,4.24
2019-02-17T01:48:31.798Z,4.24
2019-02-17T01:49:03.166Z,4.21
2019-02-17T01:49:34.550Z,4.22
2019-02-17T01:50:09.010Z,4.08
2019-02-17T01:50:40.470Z,4.03
2019-02-17T01:51:11.857Z,4.00
2019-02-17T01:51:43.288Z,4.08
2019-02-17T01:52:14.630Z,4.08
2019-02-17T01:52:45.975Z,4.04
2019-02-17T01:53:17.419Z,4.03
2019-02-17T01:53:48.892Z,3.98
2019-02-17T01:54:20.241Z,3.98
2019-02-17T01:54:51.628Z,3.89
2019-02-17T01:55:22.994Z,3.97
2019-02-17T01:55:54.355Z,3.88
2019-02-17T01:56:25.623Z,3.91
2019-02-17T01:56:56.914Z,3.91
2019-02-17T01:57:28.158Z,3.86
2019-02-17T01:57:59.472Z,3.88
2019-02-17T01:58:30.751Z,3.89
2019-02-17T01:59:02.122Z,3.89
2019-02-17T01:59:33.552Z,3.90
2019-02-17T02:00:10.055Z,3.88
2019-02-17T02:00:42.562Z,3.92
2019-02-17T02:01:13.891Z,3.92
2019-02-17T02:01:45.274Z,3.86
2019-02-17T02:02:16.713Z,3.89
2019-02-17T02:02:48.127Z,3.95
2019-02-17T02:03:19.564Z,3.87
2019-02-17T02:03:50.958Z,3.95
2019-02-17T02:04:22.216Z,3.86
2019-02-17T02:04:53.563Z,3.86
2019-02-17T02:05:24.935Z,3.95
2019-02-17T02:05:56.316Z,3.85
2019-02-17T02:06:27.558Z,3.86
2019-02-17T02:06:58.989Z,3.86
2019-02-17T02:07:30.257Z,3.97
2019-02-17T02:08:01.670Z,3.97
2019-02-17T02:08:33.082Z,3.96
2019-02-17T02:09:07.810Z,3.96
2019-02-17T02:09:39.028Z,3.98
2019-02-17T02:10:10.381Z,3.94
2019-02-17T02:10:41.625Z,3.94
2019-02-17T02:11:13.163Z,3.94
2019-02-17T02:11:44.496Z,3.92
2019-02-17T02:12:15.707Z,3.86
2019-02-17T02:12:46.974Z,3.83
2019-02-17T02:13:18.289Z,3.80
2019-02-17T02:13:49.712Z,3.78
2019-02-17T02:14:21.073Z,3.68
2019-02-17T02:14:52.429Z,3.76
2019-02-17T02:15:23.781Z,3.64
2019-02-17T02:15:55.102Z,3.64
2019-02-17T02:16:26.371Z,3.63
2019-02-17T02:16:57.797Z,3.63
2019-02-17T02:17:29.097Z,3.71
2019-02-17T02:18:01.530Z,3.70
2019-02-17T02:18:32.847Z,3.67
2019-02-17T02:19:04.179Z,3.57
2019-02-17T02:19:35.421Z,3.57
2019-02-17T02:20:10.169Z,3.66
2019-02-17T02:20:41.553Z,3.66
2019-02-17T02:21:13.171Z,3.56
2019-02-17T02:21:44.479Z,3.56
2019-02-17T02:22:15.773Z,3.64
2019-02-17T02:22:47.020Z,3.62
2019-02-17T02:23:18.363Z,3.63
2019-02-17T02:23:50.660Z,3.63
2019-02-17T02:24:21.972Z,3.63
2019-02-17T02:24:53.211Z,3.53
2019-02-17T02:25:24.477Z,3.53
2019-02-17T02:25:55.752Z,3.61
2019-02-17T02:26:26.993Z,3.59
2019-02-17T02:26:58.293Z,3.60
2019-02-17T02:27:29.598Z,3.60
2019-02-17T02:28:00.944Z,3.58
2019-02-17T02:28:32.210Z,3.57
2019-02-17T02:29:03.485Z,3.57
2019-02-17T02:29:41.022Z,3.57
2019-02-17T02:30:11.433Z,3.57
2019-02-17T02:30:42.787Z,3.60
2019-02-17T02:31:14.120Z,3.60
2019-02-17T02:31:45.407Z,3.60
2019-02-17T02:32:16.861Z,3.62
2019-02-17T02:32:48.178Z,3.65
2019-02-17T02:33:19.586Z,3.65
2019-02-17T02:33:50.856Z,3.65
2019-02-17T02:34:22.173Z,3.65
2019-02-17T02:34:53.590Z,3.56
2019-02-17T02:35:24.954Z,3.59
2019-02-17T02:35:56.301Z,3.67
2019-02-17T02:36:27.680Z,3.67
2019-02-17T02:36:58.984Z,3.67
2019-02-17T02:37:30.360Z,3.55
2019-02-17T02:38:01.690Z,3.63
2019-02-17T02:38:32.962Z,3.63
2019-02-17T02:39:05.041Z,3.63
2019-02-17T02:39:36.372Z,3.62
2019-02-17T02:40:07.699Z,3.62
2019-02-17T02:40:39.076Z,3.60
2019-02-17T02:41:10.496Z,3.61
2019-02-17T02:41:41.791Z,3.61
2019-02-17T02:42:13.191Z,3.61
2019-02-17T02:42:44.506Z,3.59
2019-02-17T02:43:15.778Z,3.59
2019-02-17T02:43:47.031Z,3.56
2019-02-17T02:44:18.386Z,3.45
2019-02-17T02:44:49.647Z,3.45
2019-02-17T02:45:20.939Z,3.55
2019-02-17T02:45:52.186Z,3.53
2019-02-17T02:46:23.594Z,3.45
2019-02-17T02:46:54.806Z,3.37
2019-02-17T02:47:26.146Z,3.37
2019-02-17T02:47:57.409Z,3.35
2019-02-17T02:48:28.765Z,3.43
2019-02-17T02:49:00.108Z,3.40
2019-02-17T02:49:31.517Z,3.39
2019-02-17T02:50:10.883Z,3.39
2019-02-17T02:50:42.386Z,3.37
2019-02-17T02:51:13.738Z,3.37
2019-02-17T02:51:45.179Z,3.34
2019-02-17T02:52:16.493Z,3.34
2019-02-17T02:52:47.825Z,3.34
2019-02-17T02:53:19.176Z,3.36
2019-02-17T02:53:50.563Z,3.36
2019-02-17T02:54:21.937Z,3.36
2019-02-17T02:54:53.314Z,3.38
2019-02-17T02:55:24.698Z,3.38
2019-02-17T02:55:55.969Z,3.28
2019-02-17T02:56:27.323Z,3.22
2019-02-17T02:56:58.608Z,3.35
2019-02-17T02:57:29.956Z,3.35
2019-02-17T02:58:01.223Z,3.26
2019-02-17T02:58:32.582Z,3.35
2019-02-17T02:59:03.903Z,3.35
2019-02-17T02:59:35.131Z,3.28
2019-02-17T03:00:10.507Z,3.22
2019-02-17T03:00:41.906Z,3.35
2019-02-17T03:01:13.480Z,3.38
2019-02-17T03:01:44.928Z,3.38
2019-02-17T03:02:16.357Z,3.35
2019-02-17T03:02:47.745Z,3.38
2019-02-17T03:03:19.191Z,3.40
2019-02-17T03:03:50.698Z,3.38
2019-02-17T03:04:22.094Z,3.38
2019-02-17T03:04:53.489Z,3.39
2019-02-17T03:05:24.798Z,3.39
2019-02-17T03:05:58.922Z,3.38
2019-02-17T03:06:32.162Z,3.35
2019-02-17T03:07:04.625Z,3.35
2019-02-17T03:07:35.898Z,3.31
2019-02-17T03:08:07.159Z,3.43
2019-02-17T03:08:38.588Z,3.46
2019-02-17T03:09:09.896Z,3.46
2019-02-17T03:09:41.208Z,3.48
2019-02-17T03:10:12.504Z,3.49
2019-02-17T03:10:43.861Z,3.51
2019-02-17T03:11:15.091Z,3.51
2019-02-17T03:11:46.369Z,3.44
2019-02-17T03:12:17.653Z,3.57
2019-02-17T03:12:48.975Z,3.57
2019-02-17T03:13:20.271Z,3.51
2019-02-17T03:13:51.613Z,3.62
2019-02-17T03:14:22.888Z,3.62
2019-02-17T03:14:54.153Z,3.63
2019-02-17T03:15:25.508Z,3.63
2019-02-17T03:15:56.797Z,3.63
2019-02-17T03:16:28.102Z,3.51
2019-02-17T03:17:00.806Z,3.51
2019-02-17T03:17:32.215Z,3.58
2019-02-17T03:18:03.500Z,3.59
2019-02-17T03:18:34.893Z,3.57
2019-02-17T03:19:06.262Z,3.53
2019-02-17T03:19:37.651Z,3.53
2019-02-17T03:20:09.132Z,3.53
2019-02-17T03:20:40.496Z,3.53
2019-02-17T03:21:11.768Z,3.51
2019-02-17T03:21:43.163Z,3.51
2019-02-17T03:22:14.399Z,3.45
2019-02-17T03:22:45.748Z,3.47
2019-02-17T03:23:17.074Z,3.47
2019-02-17T03:23:49.488Z,3.45
2019-02-17T03:24:20.735Z,3.34
2019-02-17T03:24:52.177Z,3.42
2019-02-17T03:25:23.441Z,3.41
2019-02-17T03:25:54.762Z,3.28
2019-02-17T03:26:25.959Z,3.33
2019-02-17T03:26:57.290Z,3.22
2019-02-17T03:27:28.692Z,3.22
2019-02-17T03:28:00.119Z,3.21
2019-02-17T03:28:31.414Z,3.30
2019-02-17T03:29:02.761Z,3.30
2019-02-17T03:29:34.091Z,3.28
2019-02-17T03:30:08.924Z,3.18
2019-02-17T03:30:40.348Z,3.16
2019-02-17T03:31:11.745Z,3.14
2019-02-17T03:31:43.017Z,3.14
2019-02-17T03:32:14.295Z,3.12
2019-02-17T03:32:45.563Z,3.12
2019-02-17T03:33:16.863Z,3.04
2019-02-17T03:33:48.149Z,3.05
2019-02-17T03:34:19.650Z,3.17
2019-02-17T03:34:51.028Z,3.09
2019-02-17T03:35:22.317Z,3.20
2019-02-17T03:35:53.626Z,3.09
2019-02-17T03:36:24.992Z,3.09
2019-02-17T03:36:56.320Z,3.21
2019-02-17T03:37:27.709Z,3.13
2019-02-17T03:37:59.020Z,3.22
2019-02-17T03:38:30.310Z,3.07
2019-02-17T03:39:01.682Z,3.21
2019-02-17T03:39:34.282Z,3.21
2019-02-17T03:40:07.694Z,3.18
2019-02-17T03:40:38.965Z,3.18
2019-02-17T03:41:10.263Z,3.17
2019-02-17T03:41:41.557Z,3.12
2019-02-17T03:42:12.945Z,3.12
2019-02-17T03:42:44.295Z,3.07
2019-02-17T03:43:15.523Z,3.07
2019-02-17T03:43:46.789Z,3.04
2019-02-17T03:44:18.062Z,2.95
2019-02-17T03:44:49.368Z,3.03
2019-02-17T03:45:20.601Z,3.02
2019-02-17T03:45:51.961Z,3.00
2019-02-17T03:46:23.223Z,2.86
2019-02-17T03:46:54.627Z,2.86
2019-02-17T03:47:25.933Z,2.93
2019-02-17T03:47:57.271Z,2.84
2019-02-17T03:48:28.685Z,2.93
2019-02-17T03:49:00.061Z,2.95
2019-02-17T03:49:31.411Z,2.95
2019-02-17T03:50:05.000Z,2.87
2019-02-17T03:50:36.335Z,2.97
2019-02-17T03:51:07.645Z,3.00
2019-02-17T03:51:38.915Z,3.01
2019-02-17T03:52:10.326Z,3.01
2019-02-17T03:52:41.672Z,3.02
2019-02-17T03:53:13.178Z,3.03
2019-02-17T03:53:44.432Z,3.02
2019-02-17T03:54:15.712Z,3.00
2019-02-17T03:54:46.960Z,3.02
2019-02-17T03:55:18.330Z,3.02
2019-02-17T03:55:49.578Z,3.01
2019-02-17T03:56:20.930Z,2.99
2019-02-17T03:56:52.374Z,2.99
2019-02-17T03:57:23.770Z,2.97
2019-02-17T03:57:56.058Z,2.95
2019-02-17T03:58:27.423Z,2.91
2019-02-17T03:58:58.707Z,2.79
2019-02-17T03:59:30.204Z,2.88
2019-02-17T04:00:02.458Z,2.88
2019-02-17T04:00:35.481Z,2.91
2019-02-17T04:01:06.791Z,2.91
2019-02-17T04:01:38.075Z,2.91
2019-02-17T04:02:09.436Z,2.79
2019-02-17T04:02:40.773Z,2.88
2019-02-17T04:03:12.306Z,2.88
2019-02-17T04:03:43.600Z,2.88
2019-02-17T04:04:14.951Z,2.89
2019-02-17T04:04:46.221Z,2.88
2019-02-17T04:05:17.649Z,2.88
2019-02-17T04:05:49.041Z,2.86
2019-02-17T04:06:20.421Z,2.86
2019-02-17T04:06:51.681Z,2.87
2019-02-17T04:07:22.954Z,2.77
2019-02-17T04:07:54.259Z,2.93
2019-02-17T04:08:25.585Z,2.93
2019-02-17T04:08:56.875Z,2.95
2019-02-17T04:09:28.155Z,2.96
2019-02-17T04:09:59.439Z,2.96
2019-02-17T04:10:30.750Z,2.99
2019-02-17T04:11:02.050Z,3.00
2019-02-17T04:11:33.437Z,3.00
2019-02-17T04:12:04.842Z,2.96
2019-02-17T04:12:36.195Z,3.03
2019-02-17T04:13:07.460Z,3.03
2019-02-17T04:13:38.720Z,3.04
2019-02-17T04:14:09.989Z,3.04
2019-02-17T04:14:41.272Z,3.04
2019-02-17T04:15:12.638Z,3.02
2019-02-17T04:15:43.867Z,3.07
2019-02-17T04:16:15.246Z,3.07
2019-02-17T04:16:46.494Z,3.04
2019-02-17T04:17:17.937Z,3.04
2019-02-17T04:17:49.220Z,3.02
2019-02-17T04:18:20.628Z,3.02
2019-02-17T04:18:51.849Z,3.00
2019-02-17T04:19:23.193Z,3.01
2019-02-17T04:19:54.491Z,3.01
2019-02-17T04:20:25.843Z,3.00
2019-02-17T04:20:57.078Z,2.93
2019-02-17T04:21:28.391Z,3.00
2019-02-17T04:21:59.634Z,3.00
2019-02-17T04:22:31.044Z,2.95
2019-02-17T04:23:02.320Z,3.02
2019-02-17T04:23:33.705Z,2.94
2019-02-17T04:24:04.987Z,2.91
2019-02-17T04:24:36.425Z,3.00
2019-02-17T04:25:07.675Z,2.98
2019-02-17T04:25:38.991Z,3.00
2019-02-17T04:26:10.274Z,3.00
2019-02-17T04:26:42.616Z,2.93
2019-02-17T04:27:13.962Z,2.93
2019-02-17T04:27:45.357Z,3.03
2019-02-17T04:28:16.593Z,2.95
2019-02-17T04:28:47.954Z,3.05
2019-02-17T04:29:19.257Z,3.05
2019-02-17T04:29:50.691Z,3.06
2019-02-17T04:30:29.257Z,3.11
2019-02-17T04:30:56.309Z,3.11
2019-02-17T04:31:27.709Z,3.16
2019-02-17T04:31:59.073Z,3.10
2019-02-17T04:32:30.403Z,3.23
2019-02-17T04:33:01.659Z,3.24
2019-02-17T04:33:32.921Z,3.27
2019-02-17T04:34:04.182Z,3.33
2019-02-17T04:34:35.553Z,3.25
2019-02-17T04:35:06.884Z,3.35
2019-02-17T04:35:38.216Z,3.35
2019-02-17T04:36:09.594Z,3.32
2019-02-17T04:36:40.895Z,3.36
2019-02-17T04:37:12.490Z,3.36
2019-02-17T04:37:43.773Z,3.36
2019-02-17T04:38:15.057Z,3.36
2019-02-17T04:38:46.363Z,3.37
2019-02-17T04:39:17.770Z,3.38
2019-02-17T04:39:49.139Z,3.38
2019-02-17T04:40:21.497Z,3.38
2019-02-17T04:40:52.909Z,3.34
2019-02-17T04:41:24.209Z,3.34
2019-02-17T04:41:55.482Z,3.37
2019-02-17T04:42:26.906Z,3.27
2019-02-17T04:42:58.147Z,3.27
2019-02-17T04:43:29.383Z,3.36
2019-02-17T04:44:00.630Z,3.38
2019-02-17T04:44:31.975Z,3.36
2019-02-17T04:45:05.614Z,3.39
2019-02-17T04:45:37.063Z,3.39
2019-02-17T04:46:08.319Z,3.43
2019-02-17T04:46:39.653Z,3.43
2019-02-17T04:47:10.974Z,3.47
2019-02-17T04:47:42.547Z,3.39
2019-02-17T04:48:13.784Z,3.39
2019-02-17T04:48:45.057Z,3.51
2019-02-17T04:49:16.362Z,3.50
2019-02-17T04:49:47.802Z,3.50
2019-02-17T04:50:19.115Z,3.42
2019-02-17T04:50:50.626Z,3.51
2019-02-17T04:51:21.976Z,3.52
2019-02-17T04:51:53.312Z,3.53
2019-02-17T04:52:24.544Z,3.52
2019-02-17T04:52:55.868Z,3.54
2019-02-17T04:53:27.132Z,3.54
2019-02-17T04:53:58.438Z,3.41
2019-02-17T04:54:29.698Z,3.41
2019-02-17T04:55:01.022Z,3.46
2019-02-17T04:55:32.328Z,3.46
2019-02-17T04:56:03.636Z,3.51
2019-02-17T04:56:34.965Z,3.51
2019-02-17T04:57:07.324Z,3.51
2019-02-17T04:57:38.658Z,3.40
2019-02-17T04:58:11.159Z,3.51
2019-02-17T04:58:42.512Z,3.51
2019-02-17T04:59:13.824Z,3.47
2019-02-17T04:59:45.057Z,3.51
2019-02-17T05:00:16.462Z,3.40
2019-02-17T05:00:49.931Z,3.50
2019-02-17T05:01:21.100Z,3.49
2019-02-17T05:01:52.532Z,3.49
2019-02-17T05:02:23.960Z,3.40
2019-02-17T05:02:55.338Z,3.41
2019-02-17T05:03:26.813Z,3.51
2019-02-17T05:03:58.172Z,3.47
2019-02-17T05:04:29.533Z,3.47
2019-02-17T05:05:01.010Z,3.53
2019-02-17T05:05:32.385Z,3.53
2019-02-17T05:06:03.754Z,3.53
2019-02-17T05:06:35.022Z,3.44
2019-02-17T05:07:06.406Z,3.44
2019-02-17T05:07:37.712Z,3.45
2019-02-17T05:08:09.261Z,3.57
2019-02-17T05:08:40.532Z,3.47
2019-02-17T05:09:11.854Z,3.58
2019-02-17T05:09:43.091Z,3.58
2019-02-17T05:10:14.395Z,3.58
2019-02-17T05:10:45.758Z,3.59
2019-02-17T05:11:17.146Z,3.49
2019-02-17T05:11:48.523Z,3.59
2019-02-17T05:12:19.885Z,3.59
2019-02-17T05:12:51.264Z,3.48
2019-02-17T05:13:22.547Z,3.48
2019-02-17T05:13:53.792Z,3.58
2019-02-17T05:14:25.325Z,3.58
2019-02-17T05:14:56.671Z,3.56
2019-02-17T05:15:27.966Z,3.55
2019-02-17T05:15:59.270Z,3.44
2019-02-17T05:16:30.618Z,3.53
2019-02-17T05:17:01.863Z,3.53
2019-02-17T05:17:33.154Z,3.52
2019-02-17T05:18:04.480Z,3.52
2019-02-17T05:18:35.928Z,3.51
2019-02-17T05:19:07.611Z,3.49
2019-02-17T05:19:38.998Z,3.49
2019-02-17T05:20:10.303Z,3.40
2019-02-17T05:20:41.606Z,3.40
2019-02-17T05:21:13.088Z,3.49
2019-02-17T05:21:45.431Z,3.49
2019-02-17T05:22:16.812Z,3.49
2019-02-17T05:22:48.167Z,3.49
2019-02-17T05:23:19.435Z,3.47
2019-02-17T05:23:50.693Z,3.50
2019-02-17T05:24:21.977Z,3.49
2019-02-17T05:24:53.283Z,3.50
2019-02-17T05:25:24.728Z,3.50
2019-02-17T05:25:56.002Z,3.40
2019-02-17T05:26:27.272Z,3.40
2019-02-17T05:26:58.516Z,3.51
2019-02-17T05:27:29.901Z,3.51
2019-02-17T05:28:01.289Z,3.51
2019-02-17T05:28:32.682Z,3.40
2019-02-17T05:29:03.966Z,3.48
2019-02-17T05:29:35.228Z,3.48
2019-02-17T05:30:09.713Z,3.41
2019-02-17T05:30:52.215Z,3.45
2019-02-17T05:31:14.295Z,3.46
2019-02-17T05:31:45.620Z,3.46
2019-02-17T05:32:17.033Z,3.44
2019-02-17T05:32:48.362Z,3.46
2019-02-17T05:33:19.679Z,3.36
2019-02-17T05:33:51.038Z,3.34
2019-02-17T05:34:22.424Z,3.34
2019-02-17T05:34:53.662Z,3.42
2019-02-17T05:35:25.022Z,3.42
2019-02-17T05:35:56.266Z,3.32
2019-02-17T05:36:27.687Z,3.41
2019-02-17T05:36:58.932Z,3.41
2019-02-17T05:37:30.315Z,3.41
2019-02-17T05:38:01.568Z,3.41
2019-02-17T05:38:32.870Z,3.38
2019-02-17T05:39:04.677Z,3.39
2019-02-17T05:39:36.103Z,3.42
2019-02-17T05:40:07.343Z,3.44
2019-02-17T05:40:38.675Z,3.43
2019-02-17T05:41:09.988Z,3.34
2019-02-17T05:41:41.351Z,3.45
2019-02-17T05:42:12.891Z,3.47
2019-02-17T05:42:44.174Z,3.47
2019-02-17T05:43:15.559Z,3.46
2019-02-17T05:43:46.916Z,3.45
2019-02-17T05:44:18.353Z,3.45
2019-02-17T05:44:49.716Z,3.47
2019-02-17T05:45:21.003Z,3.48
2019-02-17T05:45:52.251Z,3.50
2019-02-17T05:46:23.596Z,3.50
2019-02-17T05:46:54.853Z,3.52
2019-02-17T05:47:26.175Z,3.52
2019-02-17T05:47:57.387Z,3.51
2019-02-17T05:48:29.462Z,3.52
2019-02-17T05:49:00.840Z,3.52
2019-02-17T05:49:32.260Z,3.52
2019-02-17T05:50:04.958Z,3.42
2019-02-17T05:50:36.333Z,3.42
2019-02-17T05:51:07.619Z,3.53
2019-02-17T05:51:39.276Z,3.54
2019-02-17T05:52:10.600Z,3.55
2019-02-17T05:52:41.902Z,3.55
2019-02-17T05:53:13.274Z,3.57
2019-02-17T05:53:44.632Z,3.57
2019-02-17T05:54:15.864Z,3.55
2019-02-17T05:54:47.162Z,3.53
2019-02-17T05:55:18.425Z,3.58
2019-02-17T05:55:49.910Z,3.58
2019-02-17T05:56:21.321Z,3.50
2019-02-17T05:56:52.668Z,3.50
2019-02-17T05:57:24.026Z,3.60
2019-02-17T05:57:55.428Z,3.62
2019-02-17T05:58:26.804Z,3.62
2019-02-17T05:58:58.215Z,3.60
2019-02-17T05:59:29.665Z,3.68
2019-02-17T06:00:01.015Z,3.69
2019-02-17T06:00:32.566Z,3.65
2019-02-17T06:01:04.883Z,3.67
2019-02-17T06:01:37.123Z,3.70
2019-02-17T06:02:08.467Z,3.70
2019-02-17T06:02:39.872Z,3.72
2019-02-17T06:03:11.195Z,3.74
2019-02-17T06:03:42.496Z,3.74
2019-02-17T06:04:13.806Z,3.75
2019-02-17T06:04:45.172Z,3.74
2019-02-17T06:05:16.533Z,3.74
2019-02-17T06:05:47.918Z,3.71
2019-02-17T06:06:19.218Z,3.75
2019-02-17T06:06:50.621Z,3.75
2019-02-17T06:07:21.910Z,3.75
2019-02-17T06:07:53.251Z,3.74
2019-02-17T06:08:24.530Z,3.73
2019-02-17T06:08:55.951Z,3.74
2019-02-17T06:09:27.190Z,3.74
2019-02-17T06:09:58.533Z,3.75
2019-02-17T06:10:29.887Z,3.76
2019-02-17T06:11:01.306Z,3.77
2019-02-17T06:11:32.774Z,3.77
2019-02-17T06:12:04.196Z,3.76
2019-02-17T06:12:35.690Z,3.78
2019-02-17T06:13:06.954Z,3.78
2019-02-17T06:13:38.305Z,3.79
2019-02-17T06:14:09.905Z,3.79
2019-02-17T06:14:41.360Z,3.80
2019-02-17T06:15:12.882Z,3.80
2019-02-17T06:15:44.190Z,3.83
2019-02-17T06:16:15.513Z,3.83
2019-02-17T06:16:46.854Z,3.80
2019-02-17T06:17:18.133Z,3.78
2019-02-17T06:17:49.489Z,3.79
2019-02-17T06:18:21.718Z,3.89
2019-02-17T06:18:53.038Z,3.91
2019-02-17T06:19:24.353Z,3.91
2019-02-17T06:19:55.666Z,3.94
2019-02-17T06:20:27.056Z,3.94
2019-02-17T06:20:58.427Z,3.85
2019-02-17T06:21:29.728Z,3.85
2019-02-17T06:22:01.145Z,3.95
2019-02-17T06:22:32.425Z,3.93
2019-02-17T06:23:03.716Z,3.92
2019-02-17T06:23:34.990Z,3.92
2019-02-17T06:24:06.383Z,3.88
2019-02-17T06:24:37.743Z,3.80
2019-02-17T06:25:09.379Z,3.80
2019-02-17T06:25:40.608Z,3.80
2019-02-17T06:26:11.980Z,3.88
2019-02-17T06:26:43.335Z,3.86
2019-02-17T06:27:14.578Z,3.85
2019-02-17T06:27:46.000Z,3.85
2019-02-17T06:28:17.359Z,3.85
2019-02-17T06:28:48.612Z,3.85
2019-02-17T06:29:19.947Z,3.84
2019-02-17T06:29:51.302Z,3.84
2019-02-17T06:30:22.592Z,3.84
2019-02-17T06:30:53.923Z,3.84
2019-02-17T06:31:25.183Z,3.86
2019-02-17T06:31:56.444Z,3.75
2019-02-17T06:32:27.717Z,3.83
2019-02-17T06:32:59.069Z,3.83
2019-02-17T06:33:30.451Z,3.83
2019-02-17T06:34:01.918Z,3.83
2019-02-17T06:34:33.365Z,3.93
2019-02-17T06:35:05.820Z,3.93
2019-02-17T06:35:38.195Z,3.95
2019-02-17T06:36:09.625Z,3.95
2019-02-17T06:36:41.113Z,3.95
2019-02-17T06:37:12.506Z,3.97
2019-02-17T06:37:43.758Z,3.97
2019-02-17T06:38:15.174Z,3.95
2019-02-17T06:38:46.523Z,3.94
2019-02-17T06:39:17.920Z,3.87
2019-02-17T06:39:49.239Z,3.94
2019-02-17T06:40:20.554Z,3.94
2019-02-17T06:40:51.870Z,3.93
2019-02-17T06:41:23.289Z,3.92
2019-02-17T06:41:54.560Z,3.91
2019-02-17T06:42:25.996Z,3.85
2019-02-17T06:42:57.343Z,3.89
2019-02-17T06:43:28.667Z,3.88
2019-02-17T06:43:59.903Z,3.88
2019-02-17T06:44:31.355Z,3.88
2019-02-17T06:45:03.913Z,3.81
2019-02-17T06:45:35.214Z,3.81
2019-02-17T06:46:06.652Z,3.89
2019-02-17T06:46:39.933Z,3.90
2019-02-17T06:47:13.056Z,3.90
2019-02-17T06:47:44.313Z,3.91
2019-02-17T06:48:15.574Z,3.91
2019-02-17T06:48:46.837Z,3.91
2019-02-17T06:49:18.127Z,3.91
2019-02-17T06:49:49.367Z,3.91
2019-02-17T06:50:20.627Z,3.90
2019-02-17T06:50:51.908Z,3.90
2019-02-17T06:51:23.277Z,3.85
2019-02-17T06:51:54.540Z,3.87
2019-02-17T06:52:25.874Z,3.96
2019-02-17T06:52:57.261Z,3.97
2019-02-17T06:53:28.495Z,3.97
2019-02-17T06:53:59.774Z,3.97
2019-02-17T06:54:31.117Z,3.97
2019-02-17T06:55:04.890Z,4.00
2019-02-17T06:55:54.414Z,3.90
2019-02-17T06:56:27.596Z,3.90
2019-02-17T06:57:00.826Z,4.00
2019-02-17T06:57:34.041Z,4.03
2019-02-17T06:58:05.393Z,4.03
2019-02-17T06:58:36.714Z,4.03
2019-02-17T06:59:07.994Z,4.01
2019-02-17T06:59:39.604Z,4.01